createdAt,value
2019-02-26T00:02:26.072Z,103184.41
2019-02-26T00:05:41.386Z,103177.36
2019-02-26T00:08:58.217Z,103174.91
2019-02-26T00:12:10.994Z,103176.52
2019-02-26T00:15:24.937Z,103183.03
2019-02-26T00:18:38.773Z,103176.60
2019-02-26T00:21:54.332Z,103171.95
2019-02-26T00:25:10.445Z,103173.97
2019-02-26T00:28:24.340Z,103170.69
2019-02-26T00:31:38.153Z,103160.34
2019-02-26T00:34:53.223Z,103154.64
2019-02-26T00:38:08.961Z,103153.80
2019-02-26T00:41:24.750Z,103151.16
2019-02-26T00:44:39.199Z,103148.59
2019-02-26T00:47:53.041Z,103150.44
2019-02-26T00:51:06.859Z,103146.94
2019-02-26T00:54:24.234Z,103153.06
2019-02-26T00:57:38.367Z,103155.33
2019-02-26T01:00:52.293Z,103156.31
2019-02-26T01:04:06.156Z,103162.91
2019-02-26T01:07:21.455Z,103160.28
2019-02-26T01:10:37.536Z,103165.20
2019-02-26T01:13:52.833Z,103181.92
2019-02-26T01:17:08.208Z,103184.29
2019-02-26T01:20:26.904Z,103187.46
2019-02-26T01:23:38.773Z,103194.57
2019-02-26T01:26:52.619Z,103188.45
2019-02-26T01:30:12.535Z,103182.80
2019-02-26T01:33:30.258Z,103171.92
2019-02-26T01:36:46.787Z,103166.72
2019-02-26T01:40:00.565Z,103162.79
2019-02-26T01:43:14.377Z,103170.74
2019-02-26T01:46:29.918Z,103172.52
2019-02-26T01:49:44.641Z,103175.59
2019-02-26T01:53:01.068Z,103169.09
2019-02-26T01:56:15.035Z,103166.13
2019-02-26T01:59:28.879Z,103163.59
2019-02-26T02:02:42.841Z,103161.03
2019-02-26T02:05:56.658Z,103167.67
2019-02-26T02:09:13.438Z,103156.36
2019-02-26T02:12:29.546Z,103144.13
2019-02-26T02:15:42.714Z,103143.31
2019-02-26T02:18:59.878Z,103145.89
2019-02-26T02:22:14.665Z,103137.14
2019-02-26T02:25:33.182Z,103130.18
2019-02-26T02:28:45.014Z,103126.69
2019-02-26T02:32:02.237Z,103120.16
2019-02-26T02:35:17.873Z,103112.39
2019-02-26T02:38:30.335Z,103112.84
2019-02-26T02:41:45.449Z,103113.78
2019-02-26T02:44:59.910Z,103110.28
2019-02-26T02:48:14.239Z,103098.57
2019-02-26T02:51:31.154Z,103092.95
2019-02-26T02:54:47.026Z,103097.70
2019-02-26T02:58:00.538Z,103087.66
2019-02-26T03:01:16.637Z,103093.43
2019-02-26T03:04:33.910Z,103098.78
2019-02-26T03:07:50.442Z,103094.05
2019-02-26T03:11:02.383Z,103089.69
2019-02-26T03:14:18.534Z,103087.53
2019-02-26T03:17:31.979Z,103091.94
2019-02-26T03:20:45.802Z,103096.38
2019-02-26T03:24:00.854Z,103092.09
2019-02-26T03:27:15.381Z,103104.31
2019-02-26T03:30:37.053Z,103106.13
2019-02-26T03:33:45.092Z,103099.66
2019-02-26T03:36:59.940Z,103094.91
2019-02-26T03:40:14.747Z,103086.63
2019-02-26T03:43:30.878Z,103089.26
2019-02-26T03:46:44.296Z,103075.77
2019-02-26T03:49:58.142Z,103072.33
2019-02-26T03:53:11.967Z,103070.20
2019-02-26T03:56:25.916Z,103075.95
2019-02-26T03:59:39.899Z,103075.55
2019-02-26T04:02:53.815Z,103081.66
2019-02-26T04:06:09.995Z,103077.36
2019-02-26T04:09:23.423Z,103077.81
2019-02-26T04:12:41.942Z,103070.39
2019-02-26T04:15:56.237Z,103076.55
2019-02-26T04:19:09.446Z,103077.86
2019-02-26T04:22:29.511Z,103087.41
2019-02-26T04:25:52.097Z,103083.16
2019-02-26T04:29:12.527Z,103088.35
2019-02-26T04:32:35.589Z,103084.95
2019-02-26T04:35:58.271Z,103092.78
2019-02-26T04:39:30.927Z,103093.73
2019-02-26T04:43:12.910Z,103092.95
2019-02-26T04:46:31.638Z,103096.07
2019-02-26T04:49:46.551Z,103101.73
2019-02-26T04:53:04.438Z,103103.95
2019-02-26T04:56:16.626Z,103104.87
2019-02-26T04:59:32.412Z,103104.92
2019-02-26T05:02:47.286Z,103098.36
2019-02-26T05:06:03.092Z,103105.33
2019-02-26T05:09:17.666Z,103103.61
2019-02-26T05:12:33.991Z,103103.16
2019-02-26T05:15:47.243Z,103104.50
2019-02-26T05:19:02.982Z,103104.52
2019-02-26T05:22:16.828Z,103107.61
2019-02-26T05:25:31.481Z,103104.58
2019-02-26T05:28:48.961Z,103110.31
2019-02-26T05:32:04.232Z,103107.27
2019-02-26T05:35:20.327Z,103108.17
2019-02-26T05:38:34.883Z,103113.00
2019-02-26T05:41:52.300Z,103123.49
2019-02-26T05:45:06.880Z,103122.66
2019-02-26T05:48:23.051Z,103116.07
2019-02-26T05:51:38.222Z,103123.01
2019-02-26T05:54:52.755Z,103113.77
2019-02-26T05:58:07.443Z,103125.42
2019-02-26T06:01:25.870Z,103122.45
2019-02-26T06:04:41.097Z,103123.36
2019-02-26T06:07:55.998Z,103133.41
2019-02-26T06:11:09.848Z,103129.95
2019-02-26T06:14:25.466Z,103128.60
2019-02-26T06:17:43.071Z,103138.61
2019-02-26T06:20:55.922Z,103141.66
2019-02-26T06:24:10.958Z,103136.44
2019-02-26T06:27:27.276Z,103136.92
2019-02-26T06:30:40.615Z,103136.92
2019-02-26T06:33:54.429Z,103131.23
2019-02-26T06:37:16.681Z,103129.91
2019-02-26T06:40:34.448Z,103130.36
2019-02-26T06:43:48.371Z,103131.16
2019-02-26T06:47:04.587Z,103135.43
2019-02-26T06:50:19.009Z,103136.30
2019-02-26T06:53:33.279Z,103135.73
2019-02-26T06:56:49.071Z,103137.86
2019-02-26T07:00:06.767Z,103131.67
2019-02-26T07:03:24.202Z,103138.52
2019-02-26T07:06:38.003Z,103139.38
2019-02-26T07:09:52.007Z,103144.00
2019-02-26T07:13:07.441Z,103149.56
2019-02-26T07:16:21.616Z,103145.95
2019-02-26T07:19:36.315Z,103149.23
2019-02-26T07:22:51.668Z,103153.02
2019-02-26T07:26:07.835Z,103154.12
2019-02-26T07:29:21.695Z,103150.88
2019-02-26T07:32:36.062Z,103150.59
2019-02-26T07:35:52.269Z,103145.01
2019-02-26T07:39:07.244Z,103149.16
2019-02-26T07:42:21.100Z,103145.80
2019-02-26T07:45:34.939Z,103143.44
2019-02-26T07:48:53.530Z,103140.11
2019-02-26T07:52:06.854Z,103145.89
2019-02-26T07:55:20.301Z,103147.36
2019-02-26T07:58:36.072Z,103151.87
2019-02-26T08:01:49.855Z,103148.54
2019-02-26T08:05:04.868Z,103143.30
2019-02-26T08:08:20.915Z,103152.56
2019-02-26T08:11:36.257Z,103149.59
2019-02-26T08:14:50.264Z,103153.70
2019-02-26T08:18:05.313Z,103149.38
2019-02-26T08:21:21.735Z,103156.43
2019-02-26T08:24:35.099Z,103151.25
2019-02-26T08:27:52.156Z,103145.59
2019-02-26T08:31:06.706Z,103141.24
2019-02-26T08:34:20.682Z,103145.16
2019-02-26T08:37:34.487Z,103135.08
2019-02-26T08:40:48.443Z,103140.31
2019-02-26T08:44:02.392Z,103137.48
2019-02-26T08:47:18.592Z,103138.02
2019-02-26T08:50:33.402Z,103130.52
2019-02-26T08:53:49.505Z,103126.64
2019-02-26T08:57:03.792Z,103126.29
2019-02-26T09:00:20.144Z,103128.56
2019-02-26T09:03:40.364Z,103122.14
2019-02-26T09:06:51.859Z,103128.13
2019-02-26T09:10:10.676Z,103121.97
2019-02-26T09:13:25.534Z,103126.77
2019-02-26T09:16:39.652Z,103129.20
2019-02-26T09:20:06.266Z,103124.89
2019-02-26T09:23:09.324Z,103130.54
2019-02-26T09:26:23.220Z,103122.36
2019-02-26T09:29:41.209Z,103122.55
2019-02-26T09:32:54.711Z,103120.60
2019-02-26T09:36:10.750Z,103119.77
2019-02-26T09:39:24.332Z,103120.91
2019-02-26T09:42:38.185Z,103120.56
2019-02-26T09:45:52.905Z,103120.12
2019-02-26T09:49:11.941Z,103120.84
2019-02-26T09:52:25.684Z,103120.70
2019-02-26T09:55:38.451Z,103117.43
2019-02-26T09:58:52.408Z,103116.98
2019-02-26T10:02:06.291Z,103114.69
2019-02-26T10:05:20.113Z,103112.64
2019-02-26T10:08:33.959Z,103112.29
2019-02-26T10:11:49.240Z,103114.92
2019-02-26T10:15:06.834Z,103110.09
2019-02-26T10:18:21.498Z,103116.31
2019-02-26T10:21:37.586Z,103113.14
2019-02-26T10:24:52.194Z,103110.74
2019-02-26T10:28:08.795Z,103109.66
2019-02-26T10:31:25.067Z,103106.39
2019-02-26T10:34:37.605Z,103092.77
2019-02-26T10:37:57.069Z,103093.73
2019-02-26T10:41:11.900Z,103090.65
2019-02-26T10:44:25.790Z,103093.61
2019-02-26T10:47:39.628Z,103092.98
2019-02-26T10:50:53.470Z,103080.81
2019-02-26T10:54:09.650Z,103083.66
2019-02-26T10:57:23.045Z,103075.13
2019-02-26T11:00:38.011Z,103072.41
2019-02-26T11:03:55.079Z,103074.39
2019-02-26T11:07:09.298Z,103069.56
2019-02-26T11:10:25.232Z,103077.08
2019-02-26T11:13:40.719Z,103074.20
2019-02-26T11:16:55.238Z,103074.22
2019-02-26T11:20:12.177Z,103065.05
2019-02-26T11:23:30.961Z,103054.70
2019-02-26T11:26:43.873Z,103054.02
2019-02-26T11:29:59.503Z,103050.99
2019-02-26T11:33:15.467Z,103048.73
2019-02-26T11:36:31.283Z,103044.53
2019-02-26T11:39:44.814Z,103040.81
2019-02-26T11:43:00.214Z,103032.36
2019-02-26T11:46:14.409Z,103027.78
2019-02-26T11:49:28.262Z,103029.70
2019-02-26T11:52:42.162Z,103021.94
2019-02-26T11:55:56.931Z,103015.05
2019-02-26T11:59:14.348Z,103014.31
2019-02-26T12:02:33.409Z,103015.02
2019-02-26T12:05:43.620Z,103007.54
2019-02-26T12:08:57.459Z,103001.27
2019-02-26T12:12:11.657Z,102999.45
2019-02-26T12:15:27.117Z,102989.88
2019-02-26T12:18:44.346Z,102988.89
2019-02-26T12:22:01.311Z,102986.91
2019-02-26T12:25:15.422Z,102983.34
2019-02-26T12:28:32.472Z,102979.19
2019-02-26T12:31:45.022Z,102975.99
2019-02-26T12:34:58.894Z,102979.03
2019-02-26T12:38:20.591Z,102967.79
2019-02-26T12:41:28.460Z,102961.02
2019-02-26T12:44:45.241Z,102957.70
2019-02-26T12:47:58.234Z,102954.38
2019-02-26T12:51:12.462Z,102946.62
2019-02-26T12:54:26.897Z,102941.77
2019-02-26T12:57:43.203Z,102935.73
2019-02-26T13:00:58.485Z,102932.08
2019-02-26T13:04:13.993Z,102925.59
2019-02-26T13:07:28.134Z,102926.15
2019-02-26T13:10:46.280Z,102911.53
2019-02-26T13:13:57.904Z,102912.95
2019-02-26T13:17:13.881Z,102903.93
2019-02-26T13:20:27.707Z,102902.06
2019-02-26T13:23:41.538Z,102896.09
2019-02-26T13:26:59.269Z,102884.00
2019-02-26T13:30:17.696Z,102880.75
2019-02-26T13:33:36.960Z,102878.38
2019-02-26T13:36:52.653Z,102868.77
2019-02-26T13:40:06.874Z,102861.80
2019-02-26T13:43:20.739Z,102852.92
2019-02-26T13:46:34.914Z,102852.12
2019-02-26T13:49:49.048Z,102855.19
2019-02-26T13:53:03.501Z,102852.93
2019-02-26T13:56:17.469Z,102841.38
2019-02-26T13:59:31.317Z,102839.27
2019-02-26T14:02:45.258Z,102834.52
2019-02-26T14:05:59.122Z,102826.95
2019-02-26T14:09:12.982Z,102833.19
2019-02-26T14:12:26.817Z,102828.25
2019-02-26T14:15:40.796Z,102825.83
2019-02-26T14:18:54.655Z,102822.08
2019-02-26T14:22:08.482Z,102816.16
2019-02-26T14:25:22.768Z,102816.37
2019-02-26T14:28:36.646Z,102811.28
2019-02-26T14:31:50.511Z,102798.54
2019-02-26T14:35:07.591Z,102793.02
2019-02-26T14:38:21.526Z,102797.95
2019-02-26T14:41:35.593Z,102785.57
2019-02-26T14:44:49.454Z,102785.57
2019-02-26T14:48:03.415Z,102783.58
2019-02-26T14:51:17.815Z,102784.81
2019-02-26T14:54:32.046Z,102781.22
2019-02-26T14:57:45.972Z,102780.33
2019-02-26T15:01:03.819Z,102771.44
2019-02-26T15:04:17.909Z,102768.16
2019-02-26T15:07:31.854Z,102766.17
2019-02-26T15:10:45.826Z,102756.78
2019-02-26T15:13:59.648Z,102756.06
2019-02-26T15:17:13.595Z,102748.08
2019-02-26T15:20:27.938Z,102753.81
2019-02-26T15:23:41.787Z,102746.52
2019-02-26T15:26:55.640Z,102750.08
2019-02-26T15:30:12.811Z,102745.66
2019-02-26T15:33:26.673Z,102750.33
2019-02-26T15:36:40.801Z,102746.30
2019-02-26T15:39:54.632Z,102744.94
2019-02-26T15:43:08.504Z,102742.39
2019-02-26T15:46:22.360Z,102747.52
2019-02-26T15:49:37.773Z,102744.52
2019-02-26T15:52:53.023Z,102746.14
2019-02-26T15:56:07.656Z,102747.20
2019-02-26T15:59:21.515Z,102738.86
2019-02-26T16:02:36.824Z,102742.50
2019-02-26T16:05:50.765Z,102740.86
2019-02-26T16:09:05.239Z,102746.45
2019-02-26T16:12:19.104Z,102750.75
2019-02-26T16:15:34.256Z,102745.47
2019-02-26T16:18:48.138Z,102746.30
2019-02-26T16:22:01.971Z,102750.03
2019-02-26T16:25:15.916Z,102744.09
2019-02-26T16:28:29.779Z,102749.87
2019-02-26T16:31:43.657Z,102754.08
2019-02-26T16:34:57.525Z,102755.13
2019-02-26T16:38:14.146Z,102758.77
2019-02-26T16:41:27.867Z,102757.38
2019-02-26T16:44:41.832Z,102761.65
2019-02-26T16:47:57.299Z,102754.59
2019-02-26T16:51:11.559Z,102756.10
2019-02-26T16:54:26.053Z,102754.62
2019-02-26T16:57:40.003Z,102761.85
2019-02-26T17:00:53.988Z,102757.94
2019-02-26T17:04:08.849Z,102753.81
2019-02-26T17:07:22.974Z,102753.81
2019-02-26T17:10:37.435Z,102758.75
2019-02-26T17:13:51.381Z,102758.51
2019-02-26T17:17:05.444Z,102759.80
2019-02-26T17:20:19.581Z,102759.57
2019-02-26T17:23:35.202Z,102759.66
2019-02-26T17:26:49.681Z,102772.05
2019-02-26T17:30:07.395Z,102774.09
2019-02-26T17:33:21.374Z,102775.75
2019-02-26T17:36:35.939Z,102774.23
2019-02-26T17:39:49.971Z,102774.71
2019-02-26T17:43:04.301Z,102776.48
2019-02-26T17:46:18.279Z,102775.23
2019-02-26T17:49:33.680Z,102783.11
2019-02-26T17:52:48.046Z,102781.78
2019-02-26T17:56:01.987Z,102786.78
2019-02-26T17:59:16.863Z,102791.91
2019-02-26T18:02:31.540Z,102787.25
2019-02-26T18:05:51.233Z,102793.78
2019-02-26T18:09:01.276Z,102788.70
2019-02-26T18:12:15.102Z,102783.71
2019-02-26T18:15:29.072Z,102787.77
2019-02-26T18:18:43.044Z,102785.22
2019-02-26T18:21:56.897Z,102778.33
2019-02-26T18:25:13.583Z,102779.91
2019-02-26T18:28:27.573Z,102784.19
2019-02-26T18:31:41.592Z,102778.24
2019-02-26T18:34:55.431Z,102780.48
2019-02-26T18:38:09.371Z,102781.05
2019-02-26T18:41:23.336Z,102774.95
2019-02-26T18:44:37.201Z,102777.91
2019-02-26T18:47:51.164Z,102780.37
2019-02-26T18:51:05.786Z,102775.98
2019-02-26T18:54:20.304Z,102775.98
2019-02-26T18:57:35.239Z,102785.69
2019-02-26T19:00:49.135Z,102786.73
2019-02-26T19:04:03.176Z,102779.92
2019-02-26T19:07:17.038Z,102778.20
2019-02-26T19:10:31.114Z,102780.14
2019-02-26T19:13:44.958Z,102774.35
2019-02-26T19:16:58.862Z,102772.17
2019-02-26T19:20:23.180Z,102777.39
2019-02-26T19:23:37.156Z,102772.52
2019-02-26T19:26:51.160Z,102777.76
2019-02-26T19:30:11.005Z,102784.67
2019-02-26T19:33:25.164Z,102782.13
2019-02-26T19:36:39.069Z,102787.86
2019-02-26T19:39:52.992Z,102786.04
2019-02-26T19:43:09.654Z,102787.55
2019-02-26T19:46:23.625Z,102785.09
2019-02-26T19:49:39.782Z,102787.78
2019-02-26T19:52:56.952Z,102785.62
2019-02-26T19:56:09.270Z,102778.67
2019-02-26T19:59:23.201Z,102783.00
2019-02-26T20:02:37.087Z,102777.17
2019-02-26T20:05:51.167Z,102770.88
2019-02-26T20:09:06.462Z,102772.73
2019-02-26T20:12:20.570Z,102769.45
2019-02-26T20:15:34.420Z,102762.27
2019-02-26T20:18:48.276Z,102759.94
2019-02-26T20:22:02.249Z,102759.94
2019-02-26T20:25:18.084Z,102764.31
2019-02-26T20:28:35.232Z,102763.78
2019-02-26T20:31:47.972Z,102760.25
2019-02-26T20:35:02.820Z,102758.64
2019-02-26T20:38:16.685Z,102749.34
2019-02-26T20:41:30.550Z,102756.48
2019-02-26T20:44:45.426Z,102754.45
2019-02-26T20:48:03.845Z,102751.25
2019-02-26T20:51:18.641Z,102753.56
2019-02-26T20:54:32.829Z,102755.53
2019-02-26T20:57:47.092Z,102754.33
2019-02-26T21:01:00.978Z,102755.83
2019-02-26T21:04:14.958Z,102752.11
2019-02-26T21:07:28.814Z,102754.47
2019-02-26T21:10:45.906Z,102757.09
2019-02-26T21:14:01.364Z,102755.09
2019-02-26T21:17:15.225Z,102748.80
2019-02-26T21:20:29.190Z,102741.63
2019-02-26T21:23:43.052Z,102744.52
2019-02-26T21:26:57.037Z,102748.64
2019-02-26T21:30:16.649Z,102742.20
2019-02-26T21:33:31.323Z,102743.33
2019-02-26T21:36:45.713Z,102742.29
2019-02-26T21:39:59.541Z,102748.28
2019-02-26T21:43:16.303Z,102742.34
2019-02-26T21:46:30.153Z,102741.17
2019-02-26T21:49:43.979Z,102742.73
2019-02-26T21:52:59.656Z,102734.95
2019-02-26T21:56:15.458Z,102741.63
2019-02-26T21:59:32.596Z,102742.14
2019-02-26T22:02:45.292Z,102737.43
2019-02-26T22:06:05.344Z,102736.50
2019-02-26T22:09:14.960Z,102745.40
2019-02-26T22:12:28.848Z,102746.72
2019-02-26T22:15:44.677Z,102737.05
2019-02-26T22:18:58.461Z,102738.76
2019-02-26T22:22:12.426Z,102735.99
2019-02-26T22:25:26.281Z,102739.84
2019-02-26T22:28:42.107Z,102741.59
2019-02-26T22:31:55.941Z,102732.01
2019-02-26T22:35:10.015Z,102735.48
2019-02-26T22:38:23.864Z,102738.87
2019-02-26T22:41:37.731Z,102733.81
2019-02-26T22:44:54.639Z,102726.25
2019-02-26T22:48:08.692Z,102738.98
2019-02-26T22:51:22.698Z,102740.55
2019-02-26T22:54:36.577Z,102737.52
2019-02-26T22:57:50.450Z,102733.20
2019-02-26T23:01:30.566Z,102739.84
2019-02-26T23:04:41.171Z,102736.80
2019-02-26T23:07:55.316Z,102737.41
2019-02-26T23:11:10.441Z,102738.00
2019-02-26T23:14:24.884Z,102742.56
2019-02-26T23:17:39.337Z,102740.55
2019-02-26T23:20:53.212Z,102743.86
2019-02-26T23:24:07.161Z,102740.06
2019-02-26T23:27:20.973Z,102739.73
2019-02-26T23:30:34.867Z,102733.28
2019-02-26T23:33:49.123Z,102736.44
2019-02-26T23:37:04.568Z,102734.92
2019-02-26T23:40:18.529Z,102736.77
2019-02-26T23:43:32.443Z,102736.83
2019-02-26T23:46:46.388Z,102743.52
2019-02-26T23:50:00.289Z,102737.52
2019-02-26T23:53:14.151Z,102732.30
2019-02-26T23:56:28.009Z,102731.08
2019-02-26T23:59:41.866Z,102731.64
